Flight Track Log - Related Links

Times and Time Zones

All times are in EST time to prevent confusion due to time zone crossing. See the QXE134 flight status page for this flight to view local times or setup timezone preferences in your user account.

Time Position Orientation Groundspeed Altitude Reporting Facility
EST Latitude Longitude Course Direction KTS MPH feet Rate Location/Type
Mon 02:03:11 AM 47.4392 -122.3083 162° South 142 163 1,600  Level Seattle Center
Mon 02:03:51 AM 47.4203 -122.2992 144° Southeast 152 175 2,100 1,620 Climbing Seattle Center
Mon 02:04:51 AM 47.3661 -122.2406 75° East 236 272 4,300 2,200 Climbing Seattle Center
Mon 02:05:51 AM 47.3833 -122.1464 79° East 244 281 6,500 2,182 Climbing Seattle Center
Mon 02:06:52 AM 47.3967 -122.0472 82° East 249 287 8,700 2,033 Climbing Seattle Center
Mon 02:07:52 AM 47.4069 -121.9372 82° East 271 312 10,600 1,636 Climbing Seattle Center
Mon 02:08:53 AM 47.4189 -121.8181 82° East 300 345 12,000 1,140 Climbing Seattle Center
Mon 02:09:53 AM 47.4314 -121.6881 93° East 325 374 12,900 500 Climbing Seattle Center
Mon 02:10:53 AM 47.4267 -121.5506 91° East 341 392 13,000 50 Climbing Seattle Center
Mon 02:11:54 AM 47.4253 -121.4161 91° East 334 384 13,000  Level Seattle Center
Mon 02:12:54 AM 47.4244 -121.2875 91° East 321 369 13,000  Level Seattle Center
Mon 02:13:54 AM 47.4228 -121.1611 92° East 313 360 13,000  Level Seattle Center
Mon 02:14:55 AM 47.4200 -121.0372 92° East 307 353 13,000  Level Seattle Center
Mon 02:15:55 AM 47.4178 -120.9164 95° East 299 344 13,000  Level Seattle Center
Mon 02:16:56 AM 47.4111 -120.7931 72° East 299 344 13,000 -347 Level Seattle Center
Mon 02:17:56 AM 47.4342 -120.6883 21° North 277 319 12,300 -1,587 Descending Seattle Center
Mon 02:18:57 AM 47.5175 -120.6411 28° Northeast 270 311 9,800 -1,587 Descending Seattle Center
Mon 02:19:57 AM 47.5811 -120.5917 76° East 267 307 9,100 -1,000 Descending Seattle Center
Mon 02:20:57 AM 47.5956 -120.5058 134° Southeast 257 296 7,800 -1,388 Descending Seattle Center
Mon 02:21:58 AM 47.5492 -120.4339 136° Southeast 242 278 6,300 -1,438 Descending Seattle Center
Mon 02:22:58 AM 47.5067 -120.3733 135° Southeast 227 261 4,900 -1,000 Descending Seattle Center
Mon 02:23:58 AM 47.4697 -120.3183 135° Southeast 220 253 4,300 -600 Descending Seattle Center

Login

Don't have an account? Register now (free) for customized features, flight alerts, and more!